createdAt,value
2022-08-07T00:00:22.889Z,36.26
2022-08-07T00:02:36.625Z,35.69
2022-08-07T00:04:45.370Z,35.68
2022-08-07T00:06:51.770Z,35.70
2022-08-07T00:08:55.464Z,35.24
2022-08-07T00:10:58.506Z,35.66
2022-08-07T00:13:17.519Z,35.68
2022-08-07T00:15:38.360Z,36.04
2022-08-07T00:17:50.960Z,36.29
2022-08-07T00:20:02.497Z,36.52
2022-08-07T00:22:06.770Z,38.04
2022-08-07T00:24:10.317Z,37.27
2022-08-07T00:26:31.234Z,36.27
2022-08-07T00:28:41.822Z,36.32
2022-08-07T00:30:50.006Z,36.30
2022-08-07T00:32:53.231Z,35.61
2022-08-07T00:34:56.662Z,35.98
2022-08-07T00:36:59.620Z,35.79
2022-08-07T00:39:02.499Z,35.56
2022-08-07T00:41:10.009Z,36.42
2022-08-07T00:43:59.298Z,36.82
2022-08-07T00:45:42.109Z,35.76
2022-08-07T00:48:08.866Z,36.25
2022-08-07T00:50:20.670Z,35.66
2022-08-07T00:52:36.710Z,36.35
2022-08-07T00:54:41.353Z,36.15
2022-08-07T00:56:44.663Z,35.77
2022-08-07T00:58:52.699Z,36.88
2022-08-07T01:00:55.564Z,36.41
2022-08-07T01:03:00.413Z,37.68
2022-08-07T01:05:06.751Z,37.59
2022-08-07T01:07:23.652Z,37.32
2022-08-07T01:10:03.999Z,37.58
2022-08-07T01:12:23.798Z,35.76
2022-08-07T01:14:21.102Z,36.48
2022-08-07T01:16:32.514Z,36.46
2022-08-07T01:18:37.993Z,37.16
2022-08-07T01:20:59.500Z,36.73
2022-08-07T01:23:12.338Z,39.52
2022-08-07T01:25:54.379Z,38.20
2022-08-07T01:27:41.184Z,37.57
2022-08-07T01:29:55.355Z,37.27
2022-08-07T01:31:59.564Z,38.43
2022-08-07T01:34:04.135Z,38.28
2022-08-07T01:36:16.796Z,38.50
2022-08-07T01:38:24.841Z,38.41
2022-08-07T01:40:31.599Z,38.84
2022-08-07T01:42:58.485Z,41.53
2022-08-07T01:45:00.572Z,40.74
2022-08-07T01:48:16.854Z,38.88
2022-08-07T01:49:27.537Z,37.23
2022-08-07T01:52:03.631Z,37.21
2022-08-07T01:54:12.119Z,37.78
2022-08-07T01:56:28.913Z,38.06
2022-08-07T01:58:37.470Z,39.13
2022-08-07T02:00:49.897Z,38.51
2022-08-07T02:03:19.359Z,38.45
2022-08-07T02:05:43.248Z,37.34
2022-08-07T02:07:53.592Z,36.81
2022-08-07T02:10:14.675Z,38.30
2022-08-07T02:12:29.065Z,39.47
2022-08-07T02:14:40.762Z,37.53
2022-08-07T02:16:55.546Z,37.52
2022-08-07T02:19:05.773Z,36.80
2022-08-07T02:21:27.742Z,37.13
2022-08-07T02:23:51.491Z,38.05
2022-08-07T02:26:30.779Z,37.74
2022-08-07T02:28:24.388Z,38.72
2022-08-07T02:30:29.788Z,37.74
2022-08-07T02:32:39.467Z,39.34
2022-08-07T02:35:01.793Z,39.39
2022-08-07T02:37:11.384Z,38.57
2022-08-07T02:39:43.870Z,38.83
2022-08-07T02:41:50.565Z,37.81
2022-08-07T02:44:00.737Z,37.84
2022-08-07T02:46:05.590Z,38.47
2022-08-07T02:48:15.504Z,39.21
2022-08-07T02:50:20.820Z,40.62
2022-08-07T02:52:31.971Z,40.86
2022-08-07T02:54:40.978Z,40.03
2022-08-07T02:56:48.438Z,40.48
2022-08-07T02:58:55.268Z,41.26
2022-08-07T03:01:00.955Z,40.20
2022-08-07T03:03:07.735Z,40.78
2022-08-07T03:05:20.554Z,40.00
2022-08-07T03:07:58.868Z,40.65
2022-08-07T03:09:52.140Z,38.81
2022-08-07T03:11:57.976Z,38.41
2022-08-07T03:14:08.668Z,40.23
2022-08-07T03:16:12.521Z,40.68
2022-08-07T03:18:17.669Z,39.37
2022-08-07T03:20:25.164Z,39.65
2022-08-07T03:22:30.719Z,39.42
2022-08-07T03:24:36.549Z,40.11
2022-08-07T03:26:42.903Z,39.25
2022-08-07T03:28:58.511Z,39.33
2022-08-07T03:31:24.703Z,40.39
2022-08-07T03:33:45.491Z,39.58
2022-08-07T03:35:52.821Z,40.61
2022-08-07T03:38:04.644Z,41.08
2022-08-07T03:40:15.767Z,41.52
2022-08-07T03:42:20.958Z,41.48
2022-08-07T03:44:31.859Z,41.96
2022-08-07T03:47:14.023Z,42.33
2022-08-07T03:49:04.797Z,46.26
2022-08-07T03:51:14.759Z,45.10
2022-08-07T03:53:18.062Z,44.84
2022-08-07T03:55:23.166Z,45.69
2022-08-07T03:58:35.501Z,43.88
2022-08-07T04:00:02.700Z,43.94
2022-08-07T04:02:20.214Z,45.85
2022-08-07T04:04:24.329Z,47.10
2022-08-07T04:06:37.860Z,48.46
2022-08-07T04:08:49.154Z,45.96
2022-08-07T04:11:14.897Z,48.08
2022-08-07T04:13:20.501Z,52.27
2022-08-07T04:15:32.013Z,52.86
2022-08-07T04:18:57.613Z,51.27
2022-08-07T04:19:58.944Z,46.47
2022-08-07T04:22:07.774Z,44.63
2022-08-07T04:24:30.683Z,44.84
2022-08-07T04:26:40.520Z,44.59
2022-08-07T04:28:47.081Z,44.74
2022-08-07T04:30:57.409Z,44.95
2022-08-07T04:33:10.045Z,43.14
2022-08-07T04:35:19.768Z,43.14
2022-08-07T04:37:26.287Z,42.72
2022-08-07T04:39:35.649Z,47.60
2022-08-07T04:41:42.147Z,53.17
2022-08-07T04:44:11.889Z,54.58
2022-08-07T04:46:34.326Z,53.27
2022-08-07T04:48:51.200Z,52.49
2022-08-07T04:51:05.603Z,50.86
2022-08-07T04:53:27.817Z,48.01
2022-08-07T04:58:11.441Z,48.54
2022-08-07T04:58:29.365Z,47.96
2022-08-07T05:00:51.460Z,46.34
2022-08-07T05:03:02.872Z,48.97
2022-08-07T05:05:53.231Z,53.54
2022-08-07T05:07:57.056Z,56.61
2022-08-07T05:10:05.661Z,61.20
2022-08-07T05:12:26.869Z,63.18
2022-08-07T05:14:55.702Z,63.63
2022-08-07T05:17:11.670Z,65.55
2022-08-07T05:19:25.699Z,67.77
2022-08-07T05:21:59.979Z,68.27
2022-08-07T05:24:05.324Z,68.64
2022-08-07T05:26:23.556Z,70.03
2022-08-07T05:28:33.363Z,68.81
2022-08-07T05:30:38.140Z,69.56
2022-08-07T05:32:47.045Z,69.90
2022-08-07T05:34:52.798Z,71.06
2022-08-07T05:36:57.928Z,71.99
2022-08-07T05:40:06.394Z,72.01
2022-08-07T05:42:01.690Z,70.83
2022-08-07T05:44:12.489Z,68.66
2022-08-07T05:46:21.931Z,71.11
2022-08-07T05:48:30.965Z,70.60
2022-08-07T05:50:43.050Z,70.01
2022-08-07T05:52:47.759Z,70.06
2022-08-07T05:54:55.833Z,70.28
2022-08-07T05:57:02.625Z,70.66
2022-08-07T05:59:14.464Z,73.30
2022-08-07T06:01:21.096Z,73.12
2022-08-07T06:03:26.591Z,74.00
2022-08-07T06:05:56.641Z,73.06
2022-08-07T06:08:13.237Z,73.48
2022-08-07T06:10:26.547Z,73.91
2022-08-07T06:12:33.224Z,75.36
2022-08-07T06:14:37.311Z,73.61
2022-08-07T06:16:41.720Z,75.76
2022-08-07T06:18:51.537Z,73.53
2022-08-07T06:22:14.842Z,75.22
2022-08-07T06:24:36.776Z,75.06
2022-08-07T06:25:54.313Z,74.66
2022-08-07T06:28:05.681Z,74.57
2022-08-07T06:30:36.021Z,74.80
2022-08-07T06:32:33.340Z,76.53
2022-08-07T06:34:40.582Z,75.51
2022-08-07T06:36:52.185Z,77.65
2022-08-07T06:38:59.662Z,76.72
2022-08-07T06:42:01.166Z,76.01
2022-08-07T06:44:01.754Z,75.34
2022-08-07T06:46:15.258Z,76.31
2022-08-07T06:48:34.236Z,77.60
2022-08-07T06:50:43.251Z,75.09
2022-08-07T06:52:56.352Z,77.29
2022-08-07T06:55:33.949Z,78.93
2022-08-07T06:57:43.566Z,77.81
2022-08-07T07:00:14.419Z,78.46
2022-08-07T07:02:48.567Z,79.44
2022-08-07T07:04:54.720Z,80.74
2022-08-07T07:07:01.028Z,78.80
2022-08-07T07:09:36.280Z,78.79
2022-08-07T07:12:07.846Z,76.33
2022-08-07T07:14:05.138Z,75.30
2022-08-07T07:16:19.614Z,75.17
2022-08-07T07:18:48.378Z,77.00
2022-08-07T07:20:54.562Z,77.40
2022-08-07T07:24:09.952Z,79.35
2022-08-07T07:26:34.980Z,77.77
2022-08-07T07:27:56.280Z,76.98
2022-08-07T07:30:11.959Z,78.51
2022-08-07T07:32:16.403Z,77.09
2022-08-07T07:34:31.009Z,75.75
2022-08-07T07:36:35.658Z,76.56
2022-08-07T07:38:46.194Z,75.83
2022-08-07T07:40:54.643Z,75.41
2022-08-07T07:43:11.714Z,73.94
2022-08-07T07:45:22.801Z,73.51
2022-08-07T07:47:52.524Z,74.36
2022-08-07T07:50:33.519Z,73.22
2022-08-07T07:52:23.570Z,71.30
2022-08-07T07:54:28.397Z,70.10
2022-08-07T07:56:33.813Z,70.48
2022-08-07T07:58:40.971Z,69.37
2022-08-07T08:00:48.712Z,68.31
2022-08-07T08:03:04.841Z,68.09
2022-08-07T08:05:14.461Z,66.73
2022-08-07T08:07:20.181Z,66.39
2022-08-07T08:09:29.180Z,66.44
2022-08-07T08:11:59.794Z,65.26
2022-08-07T08:13:58.733Z,66.00
2022-08-07T08:16:03.099Z,65.19
2022-08-07T08:18:17.531Z,63.78
2022-08-07T08:20:27.389Z,62.02
2022-08-07T08:22:56.510Z,61.69
2022-08-07T08:25:27.117Z,60.33
2022-08-07T08:27:44.026Z,58.50
2022-08-07T08:30:05.043Z,57.60
2022-08-07T08:32:18.039Z,56.98
2022-08-07T08:34:29.009Z,56.09
2022-08-07T08:36:35.358Z,56.15
2022-08-07T08:38:41.405Z,53.32
2022-08-07T08:40:50.198Z,53.36
2022-08-07T08:43:03.169Z,52.48
2022-08-07T08:45:13.940Z,52.31
2022-08-07T08:47:26.871Z,52.05
2022-08-07T08:50:02.152Z,52.04
2022-08-07T08:52:14.081Z,51.05
2022-08-07T08:54:25.518Z,50.13
2022-08-07T08:56:34.351Z,50.24
2022-08-07T08:58:47.595Z,49.35
2022-08-07T09:01:00.891Z,48.62
2022-08-07T09:03:14.109Z,48.02
2022-08-07T09:05:36.612Z,48.82
2022-08-07T09:07:57.567Z,47.33
2022-08-07T09:10:08.904Z,46.45
2022-08-07T09:12:30.779Z,46.26
2022-08-07T09:14:41.870Z,47.05
2022-08-07T09:17:03.439Z,46.19
2022-08-07T09:19:51.964Z,46.87
2022-08-07T09:22:10.138Z,46.19
2022-08-07T09:24:59.037Z,44.55
2022-08-07T09:26:59.225Z,42.40
2022-08-07T09:30:05.237Z,41.42
2022-08-07T09:31:52.411Z,41.73
2022-08-07T09:34:09.483Z,42.33
2022-08-07T09:36:19.623Z,44.13
2022-08-07T09:38:40.024Z,44.04
2022-08-07T09:40:55.243Z,43.28
2022-08-07T09:43:08.444Z,42.51
2022-08-07T09:47:23.555Z,42.31
2022-08-07T09:48:01.790Z,40.94
2022-08-07T09:50:19.490Z,40.50
2022-08-07T09:52:34.122Z,40.47
2022-08-07T09:54:42.293Z,40.38
2022-08-07T09:57:19.796Z,40.49
2022-08-07T09:59:46.357Z,39.76
2022-08-07T10:02:37.407Z,40.14
2022-08-07T10:05:12.464Z,39.44
2022-08-07T10:07:53.040Z,38.70
2022-08-07T10:10:21.357Z,38.52
2022-08-07T10:12:53.295Z,37.76
2022-08-07T10:15:26.111Z,37.12
2022-08-07T10:18:00.803Z,37.20
2022-08-07T10:20:21.971Z,37.56
2022-08-07T10:22:47.919Z,37.42
2022-08-07T10:25:22.788Z,38.19
2022-08-07T10:27:45.977Z,37.82
2022-08-07T10:30:12.458Z,37.43
2022-08-07T10:32:51.276Z,38.20
2022-08-07T10:35:09.077Z,37.84
2022-08-07T10:37:59.979Z,36.46
2022-08-07T10:40:09.003Z,35.90
2022-08-07T10:42:31.329Z,36.01
2022-08-07T10:44:50.189Z,35.04
2022-08-07T10:47:01.005Z,34.67
2022-08-07T10:49:13.666Z,33.87
2022-08-07T10:51:57.735Z,34.06
2022-08-07T10:54:00.247Z,33.43
2022-08-07T10:56:11.134Z,33.05
2022-08-07T10:58:47.814Z,32.94
2022-08-07T11:01:16.117Z,32.36
2022-08-07T11:03:37.657Z,31.94
2022-08-07T11:06:00.146Z,32.29
2022-08-07T11:08:16.402Z,31.97
2022-08-07T11:10:27.572Z,31.57
2022-08-07T11:12:37.972Z,31.41
2022-08-07T11:14:59.783Z,30.95
2022-08-07T11:17:09.021Z,30.41
2022-08-07T11:19:21.320Z,30.21
2022-08-07T11:21:41.036Z,30.40
2022-08-07T11:23:50.845Z,29.34
2022-08-07T11:26:06.424Z,29.44
2022-08-07T11:28:17.521Z,28.86
2022-08-07T11:30:41.740Z,28.56
2022-08-07T11:32:57.555Z,28.42
2022-08-07T11:35:06.207Z,28.82
2022-08-07T11:37:18.918Z,28.29
2022-08-07T11:40:01.115Z,27.78
2022-08-07T11:42:18.603Z,28.60
2022-08-07T11:44:34.439Z,27.76
2022-08-07T11:46:59.919Z,27.74
2022-08-07T11:49:50.529Z,27.76
2022-08-07T11:51:58.792Z,27.12
2022-08-07T11:54:25.600Z,26.91
2022-08-07T11:56:53.163Z,26.96
2022-08-07T12:00:08.196Z,27.17
2022-08-07T12:01:59.963Z,27.77
2022-08-07T12:04:24.553Z,26.16
2022-08-07T12:06:55.375Z,26.80
2022-08-07T12:09:08.558Z,26.45
2022-08-07T12:11:24.811Z,26.05
2022-08-07T12:13:47.483Z,25.92
2022-08-07T12:16:06.695Z,25.67
2022-08-07T12:18:22.223Z,27.47
2022-08-07T12:20:39.128Z,27.58
2022-08-07T12:22:56.243Z,26.62
2022-08-07T12:26:21.875Z,26.14
2022-08-07T12:28:08.767Z,24.88
2022-08-07T12:30:14.344Z,24.97
2022-08-07T12:32:22.885Z,23.86
2022-08-07T12:34:30.309Z,24.87
2022-08-07T12:36:34.982Z,25.30
2022-08-07T12:38:47.133Z,25.00
2022-08-07T12:40:53.062Z,24.92
2022-08-07T12:43:00.083Z,24.29
2022-08-07T12:45:10.149Z,24.12
2022-08-07T12:47:26.994Z,24.36
2022-08-07T12:49:39.638Z,24.96
2022-08-07T12:52:12.305Z,24.46
2022-08-07T12:54:38.271Z,24.21
2022-08-07T12:56:51.312Z,24.61
2022-08-07T12:59:00.741Z,24.13
2022-08-07T13:01:11.632Z,23.57
2022-08-07T13:03:59.224Z,23.33
2022-08-07T13:06:26.931Z,23.44
2022-08-07T13:08:50.712Z,24.03
2022-08-07T13:11:08.612Z,23.65
2022-08-07T13:13:46.995Z,24.01
2022-08-07T13:16:01.996Z,23.64
2022-08-07T13:18:26.250Z,24.22
2022-08-07T13:20:41.849Z,23.69
2022-08-07T13:22:54.363Z,24.24
2022-08-07T13:25:02.489Z,24.70
2022-08-07T13:27:12.964Z,24.49
2022-08-07T13:29:19.327Z,24.28
2022-08-07T13:31:32.170Z,24.35
2022-08-07T13:34:34.126Z,24.67
2022-08-07T13:36:26.909Z,24.05
2022-08-07T13:38:43.104Z,23.58
2022-08-07T13:40:56.034Z,23.50
2022-08-07T13:43:02.331Z,22.65
2022-08-07T13:46:07.282Z,22.98
2022-08-07T13:48:05.474Z,23.03
2022-08-07T13:50:34.581Z,23.61
2022-08-07T13:52:35.058Z,23.47
2022-08-07T13:54:49.193Z,22.88
2022-08-07T13:56:59.947Z,23.54
2022-08-07T13:59:05.631Z,23.17
2022-08-07T14:01:20.459Z,22.77
2022-08-07T14:03:29.083Z,22.47
2022-08-07T14:05:38.113Z,22.84
2022-08-07T14:07:54.309Z,22.64
2022-08-07T14:10:20.344Z,22.77
2022-08-07T14:12:31.810Z,22.68
2022-08-07T14:14:43.239Z,21.73
2022-08-07T14:16:50.051Z,21.54
2022-08-07T14:18:57.161Z,22.06
2022-08-07T14:21:20.838Z,22.16
2022-08-07T14:24:00.317Z,23.14
2022-08-07T14:26:04.869Z,23.22
2022-08-07T14:28:20.389Z,22.82
2022-08-07T14:30:40.479Z,22.39
2022-08-07T14:32:46.252Z,21.74
2022-08-07T14:34:49.578Z,21.83
2022-08-07T14:36:56.619Z,21.80
2022-08-07T14:39:03.684Z,21.33
2022-08-07T14:41:15.011Z,21.82
2022-08-07T14:43:57.491Z,21.69
2022-08-07T14:45:50.244Z,21.97
2022-08-07T14:47:58.935Z,21.56
2022-08-07T14:50:11.161Z,21.83
2022-08-07T14:52:16.833Z,22.19
2022-08-07T14:54:32.979Z,21.46
2022-08-07T14:56:42.269Z,21.54
2022-08-07T15:01:21.643Z,21.17
2022-08-07T15:05:54.790Z,22.18
2022-08-07T15:08:12.533Z,21.90
2022-08-07T15:12:54.965Z,22.30
2022-08-07T15:15:07.765Z,22.31
2022-08-07T15:17:55.445Z,21.52
2022-08-07T15:22:29.495Z,22.67
2022-08-07T15:27:11.219Z,23.53
2022-08-07T15:34:12.431Z,21.63
2022-08-07T15:37:02.685Z,21.41
2022-08-07T15:38:59.311Z,21.08
2022-08-07T15:41:23.883Z,21.24
2022-08-07T15:43:55.828Z,20.66
2022-08-07T15:46:34.331Z,20.61
2022-08-07T15:48:32.534Z,20.54
2022-08-07T15:53:09.078Z,20.40
2022-08-07T15:55:19.033Z,20.09
2022-08-07T15:57:39.267Z,19.86
2022-08-07T15:59:52.682Z,19.63
2022-08-07T16:02:02.925Z,19.63
2022-08-07T16:04:14.716Z,19.15
2022-08-07T16:06:28.553Z,19.50
2022-08-07T16:08:38.237Z,19.71
2022-08-07T16:10:47.321Z,19.41
2022-08-07T16:13:17.643Z,19.69
2022-08-07T16:15:57.575Z,19.67
2022-08-07T16:18:12.236Z,19.64
2022-08-07T16:20:56.781Z,19.20
2022-08-07T16:23:54.297Z,19.12
2022-08-07T16:26:08.151Z,18.73
2022-08-07T16:30:05.748Z,18.74
2022-08-07T16:30:56.960Z,17.90
2022-08-07T16:34:01.652Z,18.16
2022-08-07T16:35:51.499Z,18.23
2022-08-07T16:38:18.545Z,18.21
2022-08-07T16:41:04.274Z,17.83
2022-08-07T16:43:21.727Z,18.03
2022-08-07T16:46:34.588Z,17.79
2022-08-07T16:48:28.733Z,18.38
2022-08-07T16:51:13.550Z,17.84
2022-08-07T16:54:02.226Z,17.90
2022-08-07T16:56:11.478Z,17.97
2022-08-07T16:58:22.959Z,18.55
2022-08-07T17:00:32.260Z,18.12
2022-08-07T17:03:04.783Z,18.05
2022-08-07T17:06:29.001Z,18.21
2022-08-07T17:07:57.832Z,17.96
2022-08-07T17:10:09.326Z,18.16
2022-08-07T17:12:44.364Z,18.28
2022-08-07T17:14:57.292Z,18.39
2022-08-07T17:17:06.036Z,18.55
2022-08-07T17:19:18.786Z,18.21
2022-08-07T17:21:50.669Z,17.62
2022-08-07T17:24:00.632Z,18.14
2022-08-07T17:26:23.184Z,18.07
2022-08-07T17:28:35.453Z,18.55
2022-08-07T17:30:58.540Z,18.40
2022-08-07T17:34:09.337Z,18.24
2022-08-07T17:35:54.601Z,17.66
2022-08-07T17:38:32.229Z,18.35
2022-08-07T17:40:39.689Z,18.02
2022-08-07T17:42:59.155Z,18.32
2022-08-07T17:45:14.762Z,18.23
2022-08-07T17:47:42.098Z,18.01
2022-08-07T17:49:55.423Z,18.32
2022-08-07T17:52:12.890Z,18.30
2022-08-07T17:54:29.615Z,18.52
2022-08-07T17:56:52.575Z,18.97
2022-08-07T17:59:09.885Z,19.01
2022-08-07T18:01:21.452Z,18.86
2022-08-07T18:04:04.141Z,19.00
2022-08-07T18:06:01.989Z,19.26
2022-08-07T18:08:18.628Z,19.19
2022-08-07T18:12:16.032Z,20.18
2022-08-07T18:13:20.468Z,21.35
2022-08-07T18:15:32.599Z,22.58
2022-08-07T18:18:45.093Z,23.14
2022-08-07T18:21:10.084Z,24.37
2022-08-07T18:22:34.162Z,25.31
2022-08-07T18:24:43.056Z,25.80
2022-08-07T18:27:09.799Z,26.63
2022-08-07T18:30:07.920Z,27.21
2022-08-07T18:32:00.457Z,27.79
2022-08-07T18:34:37.917Z,28.29
2022-08-07T18:36:59.831Z,28.72
2022-08-07T18:40:05.476Z,29.77
2022-08-07T18:41:58.692Z,29.85
2022-08-07T18:44:16.564Z,30.30
2022-08-07T18:46:26.027Z,30.67
2022-08-07T18:50:31.268Z,31.29
2022-08-07T18:52:34.906Z,32.45
2022-08-07T18:54:05.022Z,33.77
2022-08-07T18:56:37.661Z,33.84
2022-08-07T18:58:55.358Z,34.88
2022-08-07T19:02:06.843Z,36.24
2022-08-07T19:03:45.646Z,36.23
2022-08-07T19:06:03.371Z,35.70
2022-08-07T19:08:11.536Z,35.53
2022-08-07T19:10:21.951Z,34.98
2022-08-07T19:12:34.981Z,36.15
2022-08-07T19:14:51.152Z,36.38
2022-08-07T19:17:09.377Z,37.77
2022-08-07T19:19:27.967Z,37.66
2022-08-07T19:21:45.163Z,38.34
2022-08-07T19:24:02.305Z,38.02
2022-08-07T19:26:23.358Z,37.39
2022-08-07T19:30:57.698Z,37.18
2022-08-07T19:31:39.545Z,37.13
2022-08-07T19:33:44.389Z,37.12
2022-08-07T19:36:01.051Z,37.63
2022-08-07T19:38:16.780Z,38.72
2022-08-07T19:40:31.060Z,38.73
2022-08-07T19:42:42.848Z,39.68
2022-08-07T19:44:47.512Z,39.77
2022-08-07T19:46:58.016Z,39.57
2022-08-07T19:49:06.288Z,39.85
2022-08-07T19:51:20.193Z,39.18
2022-08-07T19:54:34.051Z,38.95
2022-08-07T19:55:57.283Z,39.11
2022-08-07T19:58:13.669Z,38.49
2022-08-07T20:00:28.902Z,37.73
2022-08-07T20:02:38.832Z,37.59
2022-08-07T20:04:46.300Z,37.70
2022-08-07T20:06:54.924Z,37.54
2022-08-07T20:09:01.756Z,37.58
2022-08-07T20:11:12.074Z,37.31
2022-08-07T20:13:23.511Z,36.86
2022-08-07T20:15:37.214Z,36.38
2022-08-07T20:17:43.670Z,36.85
2022-08-07T20:19:58.259Z,36.35
2022-08-07T20:22:03.195Z,35.73
2022-08-07T20:24:15.816Z,36.29
2022-08-07T20:26:29.963Z,36.31
2022-08-07T20:28:37.547Z,36.29
2022-08-07T20:30:46.899Z,36.15
2022-08-07T20:32:55.792Z,36.45
2022-08-07T20:35:07.838Z,36.98
2022-08-07T20:37:12.333Z,37.07
2022-08-07T20:40:02.079Z,35.63
2022-08-07T20:41:50.551Z,36.26
2022-08-07T20:43:57.476Z,35.25
2022-08-07T20:46:25.958Z,35.24
2022-08-07T20:48:30.506Z,37.74
2022-08-07T20:50:35.323Z,36.99
2022-08-07T20:52:51.160Z,37.72
2022-08-07T20:54:56.910Z,37.26
2022-08-07T20:57:05.834Z,36.73
2022-08-07T21:00:04.440Z,35.65
2022-08-07T21:01:45.666Z,36.33
2022-08-07T21:04:22.216Z,35.58
2022-08-07T21:06:28.252Z,35.17
2022-08-07T21:08:40.893Z,36.11
2022-08-07T21:10:46.313Z,35.65
2022-08-07T21:12:50.707Z,37.24
2022-08-07T21:14:58.109Z,35.97
2022-08-07T21:18:00.336Z,36.16
2022-08-07T21:19:32.006Z,37.15
2022-08-07T21:21:57.397Z,36.23
2022-08-07T21:24:06.971Z,37.17
2022-08-07T21:26:21.921Z,37.21
2022-08-07T21:28:48.113Z,36.79
2022-08-07T21:31:10.285Z,37.42
2022-08-07T21:33:21.320Z,38.46
2022-08-07T21:35:34.698Z,36.74
2022-08-07T21:38:03.994Z,36.55
2022-08-07T21:40:13.804Z,36.53
2022-08-07T21:42:48.591Z,37.04
2022-08-07T21:44:54.981Z,37.81
2022-08-07T21:47:07.404Z,38.23
2022-08-07T21:49:26.879Z,37.98
2022-08-07T21:51:51.242Z,38.74
2022-08-07T21:54:09.209Z,38.39
2022-08-07T21:56:35.777Z,37.04
2022-08-07T21:58:57.305Z,38.60
2022-08-07T22:01:08.484Z,37.79
2022-08-07T22:03:31.741Z,38.83
2022-08-07T22:05:48.502Z,39.11
2022-08-07T22:07:59.583Z,38.40
2022-08-07T22:10:05.480Z,39.55
2022-08-07T22:12:15.298Z,37.81
2022-08-07T22:14:34.536Z,37.67
2022-08-07T22:16:47.594Z,38.63
2022-08-07T22:18:59.803Z,38.81
2022-08-07T22:21:12.222Z,39.82
2022-08-07T22:23:23.637Z,39.34
2022-08-07T22:25:36.353Z,39.25
2022-08-07T22:28:07.909Z,39.28
2022-08-07T22:30:14.072Z,39.47
2022-08-07T22:32:34.192Z,40.00
2022-08-07T22:34:52.853Z,39.75
2022-08-07T22:37:09.412Z,39.66
2022-08-07T22:39:28.315Z,39.19
2022-08-07T22:42:03.633Z,39.94
2022-08-07T22:44:07.396Z,39.97
2022-08-07T22:47:02.783Z,39.96
2022-08-07T22:49:15.761Z,40.29
2022-08-07T22:51:49.284Z,40.54
2022-08-07T22:54:11.244Z,40.25
2022-08-07T22:56:30.842Z,41.44
2022-08-07T22:59:05.100Z,40.98
2022-08-07T23:01:23.421Z,40.88
2022-08-07T23:03:57.900Z,41.26
2022-08-07T23:06:23.890Z,39.94
2022-08-07T23:08:47.828Z,38.10
2022-08-07T23:11:10.283Z,37.44
2022-08-07T23:13:49.279Z,36.71
2022-08-07T23:16:44.402Z,36.41
2022-08-07T23:19:11.055Z,35.75
2022-08-07T23:21:30.099Z,35.63
2022-08-07T23:24:09.163Z,34.94
2022-08-07T23:26:19.713Z,36.08
2022-08-07T23:28:54.646Z,35.59
2022-08-07T23:31:43.023Z,36.57
2022-08-07T23:34:35.500Z,38.97
2022-08-07T23:36:28.897Z,39.85
2022-08-07T23:38:54.676Z,39.94
2022-08-07T23:41:10.452Z,39.14
2022-08-07T23:43:38.831Z,39.55
2022-08-07T23:46:03.142Z,39.19
2022-08-07T23:48:41.797Z,38.81
2022-08-07T23:50:54.497Z,39.85
2022-08-07T23:53:06.418Z,40.68
2022-08-07T23:55:47.081Z,39.34
2022-08-07T23:57:45.208Z,39.61
